createdAt,value
2016-01-13T00:00:28.856Z,989.2
2016-01-13T00:01:29.531Z,989.1
2016-01-13T00:02:29.471Z,989
2016-01-13T00:03:29.428Z,989
2016-01-13T00:04:29.367Z,989.1
2016-01-13T00:05:29.308Z,989.2
2016-01-13T00:06:29.483Z,989.1
2016-01-13T00:07:29.188Z,989.1
2016-01-13T00:08:29.363Z,989.1
2016-01-13T00:09:29.085Z,989
2016-01-13T00:10:29.446Z,989.2
2016-01-13T00:11:28.950Z,989.1
2016-01-13T00:12:28.889Z,989
2016-01-13T00:13:28.830Z,989
2016-01-13T00:14:28.785Z,989
2016-01-13T00:15:28.757Z,989
2016-01-13T00:16:28.666Z,988.9
2016-01-13T00:17:28.607Z,989.1
2016-01-13T00:18:28.531Z,989
2016-01-13T00:19:28.533Z,989
2016-01-13T00:20:28.442Z,989.1
2016-01-13T00:21:28.367Z,989
2016-01-13T00:22:28.307Z,989
2016-01-13T00:23:28.248Z,989
2016-01-13T00:24:28.390Z,988.9
2016-01-13T00:25:28.128Z,989
2016-01-13T00:26:28.084Z,988.9
2016-01-13T00:27:28.039Z,989
2016-01-13T00:28:27.964Z,988.9
2016-01-13T00:29:27.920Z,989
2016-01-13T00:30:27.859Z,989
2016-01-13T00:31:27.784Z,989
2016-01-13T00:32:27.740Z,989
2016-01-13T00:33:27.915Z,989
2016-01-13T00:34:27.620Z,989
2016-01-13T00:35:27.561Z,989
2016-01-13T00:36:27.485Z,988.9
2016-01-13T00:37:27.441Z,989
2016-01-13T00:38:27.616Z,989
2016-01-13T00:39:27.509Z,989
2016-01-13T00:40:27.278Z,989
2016-01-13T00:41:27.436Z,989
2016-01-13T00:42:27.158Z,989
2016-01-13T00:43:27.080Z,989.1
2016-01-13T00:44:27.036Z,989
2016-01-13T00:45:26.835Z,989
2016-01-13T00:46:26.916Z,989
2016-01-13T00:47:26.699Z,988.9
2016-01-13T00:48:26.813Z,988.9
2016-01-13T00:49:26.736Z,989
2016-01-13T00:50:25.943Z,988.8
2016-01-13T00:51:26.633Z,989
2016-01-13T00:52:26.573Z,989
2016-01-13T00:53:26.513Z,989.1
2016-01-13T00:54:26.688Z,989.1
2016-01-13T00:55:26.393Z,989.1
2016-01-13T00:56:26.334Z,989
2016-01-13T00:57:26.290Z,989.1
2016-01-13T00:58:26.230Z,989
2016-01-13T00:59:26.170Z,989.1
2016-01-13T01:00:25.970Z,989.1
2016-01-13T01:01:26.050Z,989.1
2016-01-13T01:02:26.022Z,989.1
2016-01-13T01:03:25.946Z,989.2
2016-01-13T01:04:25.886Z,989.1
2016-01-13T01:05:25.826Z,989
2016-01-13T01:06:25.768Z,989.3
2016-01-13T01:07:25.707Z,989.1
2016-01-13T01:08:25.679Z,989.2
2016-01-13T01:09:25.603Z,989
2016-01-13T01:10:25.778Z,989.2
2016-01-13T01:11:25.718Z,989
2016-01-13T01:12:25.439Z,989.1
2016-01-13T01:13:25.380Z,989.1
2016-01-13T01:14:25.320Z,989.2
2016-01-13T01:15:25.276Z,989.1
2016-01-13T01:16:25.200Z,989
2016-01-13T01:17:25.150Z,989.1
2016-01-13T01:18:25.077Z,989.2
2016-01-13T01:19:25.004Z,989.2
2016-01-13T01:20:24.932Z,989.2
2016-01-13T01:21:24.936Z,989.2
2016-01-13T01:22:24.790Z,989.2
2016-01-13T01:23:24.740Z,989.1
2016-01-13T01:24:24.675Z,989.2
2016-01-13T01:25:24.814Z,989.2
2016-01-13T01:26:24.562Z,989.2
2016-01-13T01:27:24.485Z,989.3
2016-01-13T01:28:24.440Z,989.1
2016-01-13T01:29:24.394Z,989.2
2016-01-13T01:30:24.317Z,989.3
2016-01-13T01:31:24.255Z,989.2
2016-01-13T01:32:24.226Z,989.2
2016-01-13T01:33:24.150Z,989.1
2016-01-13T01:34:24.105Z,989.2
2016-01-13T01:35:24.044Z,989.3
2016-01-13T01:36:23.984Z,989.3
2016-01-13T01:37:23.924Z,989.2
2016-01-13T01:38:23.849Z,989.3
2016-01-13T01:39:23.805Z,989.2
2016-01-13T01:40:23.775Z,989.3
2016-01-13T01:41:23.685Z,989.4
2016-01-13T01:42:23.641Z,989.3
2016-01-13T01:43:23.597Z,989.5
2016-01-13T01:44:23.521Z,989.3
2016-01-13T01:45:23.524Z,989.4
2016-01-13T01:46:23.620Z,989.4
2016-01-13T01:47:23.358Z,989.4
2016-01-13T01:48:23.329Z,989.2
2016-01-13T01:49:23.254Z,989.4
2016-01-13T01:50:23.382Z,989.3
2016-01-13T01:51:23.135Z,989.2
2016-01-13T01:52:23.090Z,989.2
2016-01-13T01:53:23.014Z,989.3
2016-01-13T01:54:22.955Z,989.3
2016-01-13T01:55:22.910Z,989.3
2016-01-13T01:56:22.850Z,989.4
2016-01-13T01:57:22.790Z,989.3
2016-01-13T01:58:22.731Z,989.3
2016-01-13T01:59:22.671Z,989.4
2016-01-13T02:00:22.627Z,989.4
2016-01-13T02:01:22.551Z,989.3
2016-01-13T02:02:22.523Z,989.3
2016-01-13T02:03:22.448Z,989.4
2016-01-13T02:04:22.419Z,989.3
2016-01-13T02:05:22.328Z,989.4
2016-01-13T02:06:22.284Z,989.3
2016-01-13T02:07:22.221Z,989.3
2016-01-13T02:08:22.177Z,989.3
2016-01-13T02:09:22.101Z,989.4
2016-01-13T02:10:22.058Z,989.4
2016-01-13T02:11:21.998Z,989.4
2016-01-13T02:12:21.922Z,989.4
2016-01-13T02:13:21.878Z,989.4
2016-01-13T02:14:21.818Z,989.4
2016-01-13T02:15:21.759Z,989.4
2016-01-13T02:16:21.824Z,989.3
2016-01-13T02:17:21.638Z,989.3
2016-01-13T02:18:21.594Z,989.2
2016-01-13T02:19:21.519Z,989.3
2016-01-13T02:20:21.475Z,989.3
2016-01-13T02:21:21.400Z,989.3
2016-01-13T02:22:21.355Z,989.4
2016-01-13T02:23:21.311Z,989.4
2016-01-13T02:24:21.236Z,989.3
2016-01-13T02:25:21.176Z,989.3
2016-01-13T02:26:21.116Z,989.2
2016-01-13T02:27:21.057Z,989.4
2016-01-13T02:28:21.027Z,989.3
2016-01-13T02:29:20.953Z,989.3
2016-01-13T02:30:20.892Z,989.4
2016-01-13T02:31:20.833Z,989.3
2016-01-13T02:32:20.976Z,989.3
2016-01-13T02:33:20.729Z,989.3
2016-01-13T02:34:20.654Z,989.3
2016-01-13T02:35:20.594Z,989.2
2016-01-13T02:36:20.566Z,989.2
2016-01-13T02:37:20.474Z,989.2
2016-01-13T02:38:20.618Z,989.2
2016-01-13T02:39:20.354Z,989.2
2016-01-13T02:40:19.310Z,989.3
2016-01-13T02:41:20.267Z,989.3
2016-01-13T02:42:20.190Z,989.3
2016-01-13T02:43:20.334Z,989.2
2016-01-13T02:44:20.086Z,989.2
2016-01-13T02:45:20.012Z,989.2
2016-01-13T02:46:19.952Z,989.1
2016-01-13T02:47:18.970Z,989
2016-01-13T02:48:19.848Z,989.1
2016-01-13T02:49:19.789Z,989.1
2016-01-13T02:50:19.729Z,989
2016-01-13T02:51:19.653Z,989
2016-01-13T02:52:19.609Z,989.1
2016-01-13T02:53:19.550Z,989.1
2016-01-13T02:54:19.489Z,989
2016-01-13T02:55:19.430Z,989
2016-01-13T02:56:19.370Z,989.1
2016-01-13T02:57:19.544Z,989
2016-01-13T02:58:19.484Z,989
2016-01-13T02:59:19.206Z,989
2016-01-13T03:00:19.130Z,989
2016-01-13T03:01:19.071Z,989
2016-01-13T03:02:19.026Z,988.9
2016-01-13T03:03:18.794Z,989
2016-01-13T03:04:18.766Z,988.9
2016-01-13T03:05:18.831Z,988.9
2016-01-13T03:06:18.772Z,989
2016-01-13T03:07:18.727Z,989
2016-01-13T03:08:18.668Z,989
2016-01-13T03:09:18.608Z,989
2016-01-13T03:10:18.548Z,989
2016-01-13T03:11:18.488Z,989
2016-01-13T03:12:18.429Z,988.9
2016-01-13T03:13:18.557Z,989
2016-01-13T03:14:18.543Z,989
2016-01-13T03:15:18.265Z,988.9
2016-01-13T03:16:18.189Z,988.9
2016-01-13T03:17:18.160Z,989
2016-01-13T03:18:18.101Z,988.9
2016-01-13T03:19:18.010Z,989
2016-01-13T03:20:17.965Z,988.9
2016-01-13T03:21:17.890Z,988.9
2016-01-13T03:22:17.846Z,989
2016-01-13T03:23:17.801Z,989
2016-01-13T03:24:17.929Z,989
2016-01-13T03:25:17.666Z,989
2016-01-13T03:26:17.606Z,989
2016-01-13T03:27:17.562Z,989.1
2016-01-13T03:28:17.503Z,989
2016-01-13T03:29:17.427Z,988.9
2016-01-13T03:30:17.383Z,989
2016-01-13T03:31:17.323Z,989.1
2016-01-13T03:32:17.247Z,988.9
2016-01-13T03:33:17.204Z,989.1
2016-01-13T03:34:17.128Z,988.9
2016-01-13T03:35:17.069Z,989
2016-01-13T03:36:16.306Z,988.9
2016-01-13T03:37:16.949Z,989
2016-01-13T03:38:16.889Z,989
2016-01-13T03:39:16.829Z,989
2016-01-13T03:40:16.769Z,989
2016-01-13T03:41:16.929Z,989
2016-01-13T03:42:16.666Z,989.1
2016-01-13T03:43:16.606Z,989.1
2016-01-13T03:44:16.546Z,988.9
2016-01-13T03:45:16.486Z,989
2016-01-13T03:46:16.427Z,989.2
2016-01-13T03:47:16.383Z,989.1
2016-01-13T03:48:16.323Z,989.2
2016-01-13T03:49:16.247Z,989.2
2016-01-13T03:50:16.218Z,989.1
2016-01-13T03:51:16.127Z,989.1
2016-01-13T03:52:16.084Z,989.2
2016-01-13T03:53:16.008Z,989.2
2016-01-13T03:54:16.152Z,989.2
2016-01-13T03:55:15.904Z,989.2
2016-01-13T03:56:15.829Z,989.1
2016-01-13T03:57:15.784Z,989.1
2016-01-13T03:58:15.725Z,989
2016-01-13T03:59:15.649Z,989.2
2016-01-13T04:00:15.621Z,989.1
2016-01-13T04:01:15.546Z,989.1
2016-01-13T04:02:15.486Z,989
2016-01-13T04:03:15.456Z,989
2016-01-13T04:04:15.366Z,989.1
2016-01-13T04:05:15.306Z,989
2016-01-13T04:06:15.247Z,989.1
2016-01-13T04:07:15.203Z,989
2016-01-13T04:08:15.142Z,989
2016-01-13T04:09:15.067Z,989.1
2016-01-13T04:10:15.242Z,989.1
2016-01-13T04:11:14.978Z,989
2016-01-13T04:12:14.903Z,989.1
2016-01-13T04:13:14.858Z,989
2016-01-13T04:14:14.783Z,989
2016-01-13T04:15:14.724Z,989.3
2016-01-13T04:16:14.680Z,989.1
2016-01-13T04:17:14.604Z,989.1
2016-01-13T04:18:14.560Z,989
2016-01-13T04:19:14.482Z,989
2016-01-13T04:20:14.438Z,989
2016-01-13T04:21:14.378Z,989
2016-01-13T04:22:14.553Z,989.1
2016-01-13T04:23:14.493Z,989
2016-01-13T04:24:14.214Z,989
2016-01-13T04:25:14.388Z,989.1
2016-01-13T04:26:14.329Z,989
2016-01-13T04:27:14.035Z,989.1
2016-01-13T04:28:14.179Z,989.1
2016-01-13T04:29:13.962Z,989.1
2016-01-13T04:30:13.855Z,989.1
2016-01-13T04:31:13.796Z,989.1
2016-01-13T04:32:13.767Z,989.3
2016-01-13T04:33:13.692Z,989.1
2016-01-13T04:34:13.695Z,989.1
2016-01-13T04:35:13.587Z,989.1
2016-01-13T04:36:13.528Z,989.1
2016-01-13T04:37:13.468Z,989.2
2016-01-13T04:38:13.409Z,989.1
2016-01-13T04:39:13.584Z,989.3
2016-01-13T04:40:13.304Z,989.3
2016-01-13T04:41:13.464Z,989.2
2016-01-13T04:42:13.185Z,989.3
2016-01-13T04:43:13.125Z,989.1
2016-01-13T04:44:13.065Z,989.2
2016-01-13T04:45:13.225Z,989.3
2016-01-13T04:46:12.945Z,989.2
2016-01-13T04:47:12.901Z,989.3
2016-01-13T04:48:12.857Z,989.2
2016-01-13T04:49:12.781Z,989.3
2016-01-13T04:50:12.753Z,989.2
2016-01-13T04:51:12.678Z,989.3
2016-01-13T04:52:12.603Z,989.3
2016-01-13T04:53:12.558Z,989.3
2016-01-13T04:54:12.499Z,989.3
2016-01-13T04:55:12.439Z,989.3
2016-01-13T04:56:12.380Z,989.3
2016-01-13T04:57:12.319Z,989.2
2016-01-13T04:58:12.260Z,989.4
2016-01-13T04:59:12.216Z,989.3
2016-01-13T05:00:12.155Z,989.3
2016-01-13T05:01:12.080Z,989.3
2016-01-13T05:02:12.238Z,989.2
2016-01-13T05:03:11.976Z,989.3
2016-01-13T05:04:11.947Z,989.4
2016-01-13T05:05:11.871Z,989.3
2016-01-13T05:06:12.015Z,989.3
2016-01-13T05:07:11.768Z,989.4
2016-01-13T05:08:11.927Z,989.3
2016-01-13T05:09:11.868Z,989.3
2016-01-13T05:10:11.589Z,989.4
2016-01-13T05:11:11.529Z,989.3
2016-01-13T05:12:11.704Z,989.3
2016-01-13T05:13:11.409Z,989.3
2016-01-13T05:14:11.787Z,989.5
2016-01-13T05:15:11.306Z,989.4
2016-01-13T05:16:11.230Z,989.3
2016-01-13T05:17:11.421Z,989.4
2016-01-13T05:18:11.376Z,989.3
2016-01-13T05:19:11.067Z,989.3
2016-01-13T05:20:11.022Z,989.5
2016-01-13T05:21:10.962Z,989.3
2016-01-13T05:22:11.137Z,989.4
2016-01-13T05:23:10.842Z,989.4
2016-01-13T05:24:11.017Z,989.4
2016-01-13T05:25:10.739Z,989.4
2016-01-13T05:26:10.679Z,989.4
2016-01-13T05:27:10.619Z,989.4
2016-01-13T05:28:10.762Z,989.3
2016-01-13T05:29:10.500Z,989.3
2016-01-13T05:30:10.455Z,989.4
2016-01-13T05:31:10.395Z,989.4
2016-01-13T05:32:10.539Z,989.4
2016-01-13T05:33:10.275Z,989.3
2016-01-13T05:34:09.982Z,989.3
2016-01-13T05:35:10.203Z,989.4
2016-01-13T05:36:10.316Z,989.3
2016-01-13T05:37:10.052Z,989.4
2016-01-13T05:38:10.071Z,989.4
2016-01-13T05:39:09.933Z,989.3
2016-01-13T05:40:10.123Z,989.4
2016-01-13T05:41:09.829Z,989.4
2016-01-13T05:42:09.769Z,989.5
2016-01-13T05:43:09.928Z,989.5
2016-01-13T05:44:09.665Z,989.6
2016-01-13T05:45:09.605Z,989.5
2016-01-13T05:46:09.607Z,989.4
2016-01-13T05:47:09.485Z,989.3
2016-01-13T05:48:09.426Z,989.5
2016-01-13T05:49:09.366Z,989.5
2016-01-13T05:50:09.307Z,989.4
2016-01-13T05:51:09.246Z,989.4
2016-01-13T05:52:09.187Z,989.4
2016-01-13T05:53:09.158Z,989.3
2016-01-13T05:54:09.067Z,989.5
2016-01-13T05:55:09.023Z,989.4
2016-01-13T05:56:08.979Z,989.5
2016-01-13T05:57:08.920Z,989.5
2016-01-13T05:58:08.859Z,989.6
2016-01-13T05:59:09.034Z,989.5
2016-01-13T06:00:08.787Z,989.5
2016-01-13T06:01:08.681Z,989.5
2016-01-13T06:02:08.621Z,989.5
2016-01-13T06:03:08.576Z,989.5
2016-01-13T06:04:08.532Z,989.7
2016-01-13T06:05:08.473Z,989.7
2016-01-13T06:06:07.647Z,989.6
2016-01-13T06:07:08.353Z,989.6
2016-01-13T06:08:08.293Z,989.6
2016-01-13T06:09:08.233Z,989.6
2016-01-13T06:10:08.407Z,989.7
2016-01-13T06:11:08.128Z,989.6
2016-01-13T06:12:08.069Z,989.7
2016-01-13T06:13:07.994Z,989.7
2016-01-13T06:14:07.949Z,989.6
2016-01-13T06:15:07.905Z,989.7
2016-01-13T06:16:07.830Z,989.7
2016-01-13T06:17:07.770Z,989.6
2016-01-13T06:18:07.726Z,989.6
2016-01-13T06:19:07.697Z,989.7
2016-01-13T06:20:07.604Z,989.8
2016-01-13T06:21:07.747Z,989.8
2016-01-13T06:22:07.516Z,989.8
2016-01-13T06:23:07.440Z,989.7
2016-01-13T06:24:07.396Z,989.6
2016-01-13T06:25:07.321Z,989.8
2016-01-13T06:26:07.276Z,989.8
2016-01-13T06:27:07.216Z,989.9
2016-01-13T06:28:07.140Z,989.8
2016-01-13T06:29:07.097Z,989.9
2016-01-13T06:30:07.037Z,990
2016-01-13T06:31:07.009Z,989.9
2016-01-13T06:32:06.933Z,990
2016-01-13T06:33:06.873Z,989.9
2016-01-13T06:34:06.813Z,989.9
2016-01-13T06:35:06.754Z,989.8
2016-01-13T06:36:06.694Z,989.8
2016-01-13T06:37:06.650Z,989.9
2016-01-13T06:38:06.590Z,990
2016-01-13T06:39:06.531Z,989.9
2016-01-13T06:40:05.720Z,989.9
2016-01-13T06:41:06.412Z,990
2016-01-13T06:42:06.382Z,990
2016-01-13T06:43:06.135Z,990
2016-01-13T06:44:06.232Z,990
2016-01-13T06:45:06.187Z,990
2016-01-13T06:46:06.127Z,989.9
2016-01-13T06:47:06.067Z,990
2016-01-13T06:48:06.243Z,990
2016-01-13T06:49:05.948Z,990
2016-01-13T06:50:05.889Z,989.8
2016-01-13T06:51:05.845Z,990
2016-01-13T06:52:05.784Z,989.9
2016-01-13T06:53:05.959Z,990.1
2016-01-13T06:54:05.681Z,990
2016-01-13T06:55:05.605Z,990.2
2016-01-13T06:56:05.561Z,990.2
2016-01-13T06:57:05.501Z,990.2
2016-01-13T06:58:05.442Z,990.1
2016-01-13T06:59:05.397Z,990.2
2016-01-13T07:00:05.338Z,990.2
2016-01-13T07:01:05.277Z,990.2
2016-01-13T07:02:05.219Z,990.3
2016-01-13T07:03:05.174Z,990.4
2016-01-13T07:04:05.099Z,990.2
2016-01-13T07:05:05.069Z,990.3
2016-01-13T07:06:05.010Z,990.3
2016-01-13T07:07:04.778Z,990.4
2016-01-13T07:08:04.891Z,990.4
2016-01-13T07:09:04.831Z,990.3
2016-01-13T07:10:04.957Z,990.5
2016-01-13T07:11:04.696Z,990.3
2016-01-13T07:12:04.666Z,990.5
2016-01-13T07:13:04.590Z,990.5
2016-01-13T07:14:04.546Z,990.5
2016-01-13T07:15:04.488Z,990.4
2016-01-13T07:16:04.427Z,990.4
2016-01-13T07:17:04.602Z,990.6
2016-01-13T07:18:04.307Z,990.6
2016-01-13T07:19:04.310Z,990.6
2016-01-13T07:20:04.188Z,990.5
2016-01-13T07:21:04.145Z,990.6
2016-01-13T07:22:04.069Z,990.5
2016-01-13T07:23:04.025Z,990.6
2016-01-13T07:24:03.965Z,990.8
2016-01-13T07:25:03.920Z,990.8
2016-01-13T07:26:03.845Z,990.9
2016-01-13T07:27:03.801Z,990.9
2016-01-13T07:28:03.742Z,990.9
2016-01-13T07:29:03.681Z,990.9
2016-01-13T07:30:03.637Z,991
2016-01-13T07:31:03.578Z,990.9
2016-01-13T07:32:03.518Z,990.9
2016-01-13T07:33:03.458Z,991
2016-01-13T07:34:03.398Z,990.9
2016-01-13T07:35:03.338Z,991
2016-01-13T07:36:03.278Z,991
2016-01-13T07:37:03.219Z,991.1
2016-01-13T07:38:03.159Z,991.2
2016-01-13T07:39:03.115Z,991.2
2016-01-13T07:40:03.055Z,991.2
2016-01-13T07:41:02.979Z,991.1
2016-01-13T07:42:02.936Z,991.2
2016-01-13T07:43:02.735Z,991.3
2016-01-13T07:44:02.832Z,991.1
2016-01-13T07:45:02.960Z,991.2
2016-01-13T07:46:02.712Z,991.3
2016-01-13T07:47:02.636Z,991.3
2016-01-13T07:48:02.593Z,991.4
2016-01-13T07:49:02.549Z,991.4
2016-01-13T07:50:02.458Z,991.3
2016-01-13T07:51:02.615Z,991.4
2016-01-13T07:52:02.353Z,991.4
2016-01-13T07:53:02.309Z,991.5
2016-01-13T07:54:02.234Z,991.5
2016-01-13T07:55:02.174Z,991.5
2016-01-13T07:56:02.114Z,991.5
2016-01-13T07:57:02.070Z,991.5
2016-01-13T07:58:02.026Z,991.5
2016-01-13T07:59:01.951Z,991.7
2016-01-13T08:00:01.906Z,991.5
2016-01-13T08:01:01.831Z,991.6
2016-01-13T08:02:02.115Z,991.6
2016-01-13T08:03:01.717Z,991.6
2016-01-13T08:04:01.673Z,991.5
2016-01-13T08:05:01.612Z,991.7
2016-01-13T08:06:01.554Z,991.6
2016-01-13T08:07:01.493Z,991.6
2016-01-13T08:08:01.683Z,991.7
2016-01-13T08:09:01.373Z,991.6
2016-01-13T08:10:01.311Z,991.6
2016-01-13T08:11:01.251Z,991.6
2016-01-13T08:12:01.223Z,991.7
2016-01-13T08:13:01.148Z,991.7
2016-01-13T08:14:01.087Z,991.8
2016-01-13T08:15:01.028Z,991.8
2016-01-13T08:16:00.984Z,991.7
2016-01-13T08:17:00.939Z,991.7
2016-01-13T08:18:00.848Z,991.8
2016-01-13T08:19:00.804Z,991.8
2016-01-13T08:20:00.729Z,991.8
2016-01-13T08:21:00.684Z,991.8
2016-01-13T08:22:00.860Z,991.9
2016-01-13T08:23:00.628Z,991.9
2016-01-13T08:24:00.522Z,991.8
2016-01-13T08:25:00.445Z,992
2016-01-13T08:26:00.589Z,991.9
2016-01-13T08:27:00.342Z,992
2016-01-13T08:28:00.469Z,992
2016-01-13T08:29:00.222Z,992
2016-01-13T08:30:00.147Z,992
2016-01-13T08:31:00.103Z,992
2016-01-13T08:32:00.043Z,992
2016-01-13T08:33:00.185Z,992
2016-01-13T08:33:59.938Z,992
2016-01-13T08:34:59.863Z,992
2016-01-13T08:35:59.819Z,992
2016-01-13T08:36:59.744Z,992
2016-01-13T08:37:59.684Z,992.1
2016-01-13T08:38:59.640Z,992.1
2016-01-13T08:39:59.580Z,992.1
2016-01-13T08:40:59.520Z,992.1
2016-01-13T08:41:59.445Z,992
2016-01-13T08:42:59.401Z,992.2
2016-01-13T08:43:59.340Z,992.1
2016-01-13T08:44:59.281Z,992.2
2016-01-13T08:45:59.221Z,992.2
2016-01-13T08:46:59.162Z,992.1
2016-01-13T08:47:59.117Z,992.2
2016-01-13T08:48:59.057Z,992.3
2016-01-13T08:49:58.998Z,992.2
2016-01-13T08:50:58.937Z,992.3
2016-01-13T08:51:58.878Z,992.3
2016-01-13T08:52:58.818Z,992.2
2016-01-13T08:53:58.961Z,992.3
2016-01-13T08:54:58.558Z,992.1
2016-01-13T08:55:58.639Z,992.3
2016-01-13T08:56:58.595Z,992.2
2016-01-13T08:57:58.739Z,992.3
2016-01-13T08:58:58.475Z,992.3
2016-01-13T08:59:58.415Z,992.3
2016-01-13T09:00:58.356Z,992.4
2016-01-13T09:01:58.484Z,992.3
2016-01-13T09:02:58.236Z,992.5
2016-01-13T09:03:58.176Z,992.5
2016-01-13T09:04:58.350Z,992.3
2016-01-13T09:05:58.088Z,992.5
2016-01-13T09:06:57.996Z,992.5
2016-01-13T09:07:57.937Z,992.5
2016-01-13T09:08:57.877Z,992.5
2016-01-13T09:09:57.817Z,992.4
2016-01-13T09:10:57.774Z,992.5
2016-01-13T09:11:57.697Z,992.6
2016-01-13T09:12:57.638Z,992.5
2016-01-13T09:13:57.594Z,992.6
2016-01-13T09:14:57.549Z,992.6
2016-01-13T09:15:57.677Z,992.7
2016-01-13T09:16:57.757Z,992.7
2016-01-13T09:17:57.589Z,992.8
2016-01-13T09:18:57.296Z,992.7
2016-01-13T09:19:57.251Z,992.7
2016-01-13T09:20:57.379Z,992.7
2016-01-13T09:21:57.178Z,992.7
2016-01-13T09:22:57.057Z,992.8
2016-01-13T09:23:56.855Z,992.8
2016-01-13T09:24:56.952Z,992.7
2016-01-13T09:25:56.892Z,992.8
2016-01-13T09:26:56.863Z,992.9
2016-01-13T09:27:56.773Z,993.1
2016-01-13T09:28:56.712Z,993.2
2016-01-13T09:29:56.668Z,993.1
2016-01-13T09:30:56.608Z,993.1
2016-01-13T09:31:56.737Z,993.2
2016-01-13T09:32:56.708Z,993.3
2016-01-13T09:33:56.429Z,993.3
2016-01-13T09:34:56.353Z,993.3
2016-01-13T09:35:56.325Z,993.4
2016-01-13T09:36:56.250Z,993.4
2016-01-13T09:37:56.190Z,993.4
2016-01-13T09:38:56.146Z,993.4
2016-01-13T09:39:56.086Z,993.3
2016-01-13T09:40:56.026Z,993.4
2016-01-13T09:41:55.967Z,993.6
2016-01-13T09:42:55.906Z,993.6
2016-01-13T09:43:55.847Z,993.6
2016-01-13T09:44:55.787Z,993.5
2016-01-13T09:45:55.728Z,993.6
2016-01-13T09:46:55.667Z,993.6
2016-01-13T09:47:55.608Z,993.6
2016-01-13T09:48:55.594Z,993.6
2016-01-13T09:49:55.505Z,993.7
2016-01-13T09:50:55.444Z,993.7
2016-01-13T09:51:55.385Z,993.8
2016-01-13T09:52:55.341Z,993.8
2016-01-13T09:53:55.266Z,993.8
2016-01-13T09:54:55.205Z,993.9
2016-01-13T09:55:55.161Z,993.9
2016-01-13T09:56:55.101Z,993.9
2016-01-13T09:57:55.041Z,994
2016-01-13T09:58:54.997Z,994
2016-01-13T09:59:54.938Z,994
2016-01-13T10:00:54.862Z,993.9
2016-01-13T10:01:54.864Z,993.8
2016-01-13T10:02:54.758Z,993.9
2016-01-13T10:03:54.682Z,994.1
2016-01-13T10:04:53.887Z,994
2016-01-13T10:05:54.593Z,994
2016-01-13T10:06:54.518Z,994
2016-01-13T10:07:54.459Z,994.1
2016-01-13T10:08:54.399Z,994
2016-01-13T10:09:54.354Z,994.1
2016-01-13T10:10:54.295Z,994.1
2016-01-13T10:11:54.235Z,994
2016-01-13T10:12:54.176Z,994.1
2016-01-13T10:13:54.132Z,994.1
2016-01-13T10:14:54.054Z,994.1
2016-01-13T10:15:53.993Z,994.2
2016-01-13T10:16:53.965Z,994.1
2016-01-13T10:17:53.889Z,994.1
2016-01-13T10:18:53.830Z,994.2
2016-01-13T10:19:54.009Z,994.1
2016-01-13T10:20:53.714Z,994.2
2016-01-13T10:21:53.671Z,994.2
2016-01-13T10:22:53.595Z,994.3
2016-01-13T10:23:53.543Z,994.3
2016-01-13T10:24:53.453Z,994.2
2016-01-13T10:25:53.395Z,994.2
2016-01-13T10:26:53.321Z,994.3
2016-01-13T10:27:53.481Z,994.2
2016-01-13T10:28:53.194Z,994.2
2016-01-13T10:29:53.113Z,994.3
2016-01-13T10:30:53.063Z,994.3
2016-01-13T10:31:52.983Z,994.3
2016-01-13T10:32:52.948Z,994.3
2016-01-13T10:33:53.291Z,994.4
2016-01-13T10:34:52.808Z,994.2
2016-01-13T10:35:52.746Z,994.4
2016-01-13T10:36:52.919Z,994.5
2016-01-13T10:37:52.638Z,994.3
2016-01-13T10:38:52.796Z,994.4
2016-01-13T10:39:52.518Z,994.3
2016-01-13T10:40:52.441Z,994.4
2016-01-13T10:41:52.398Z,994.3
2016-01-13T10:42:52.337Z,994.5
2016-01-13T10:43:52.277Z,994.4
2016-01-13T10:44:52.232Z,994.5
2016-01-13T10:45:52.157Z,994.5
2016-01-13T10:46:52.096Z,994.4
2016-01-13T10:47:52.036Z,994.4
2016-01-13T10:48:51.975Z,994.5
2016-01-13T10:49:51.948Z,994.6
2016-01-13T10:50:51.888Z,994.6
2016-01-13T10:51:51.812Z,994.5
2016-01-13T10:52:51.752Z,994.6
2016-01-13T10:53:51.692Z,994.6
2016-01-13T10:54:51.633Z,994.6
2016-01-13T10:55:51.589Z,994.5
2016-01-13T10:56:51.530Z,994.6
2016-01-13T10:57:51.469Z,994.7
2016-01-13T10:58:51.410Z,994.7
2016-01-13T10:59:51.350Z,994.7
2016-01-13T11:00:51.305Z,994.7
2016-01-13T11:01:51.246Z,994.7
2016-01-13T11:02:51.171Z,994.7
2016-01-13T11:03:51.110Z,994.7
2016-01-13T11:04:51.051Z,994.7
2016-01-13T11:05:50.991Z,994.7
2016-01-13T11:06:50.947Z,994.6
2016-01-13T11:07:50.887Z,994.7
2016-01-13T11:08:50.828Z,994.7
2016-01-13T11:09:50.768Z,994.8
2016-01-13T11:10:50.707Z,994.6
2016-01-13T11:11:50.663Z,994.6
2016-01-13T11:12:50.588Z,994.8
2016-01-13T11:13:50.544Z,994.9
2016-01-13T11:14:50.468Z,994.7
2016-01-13T11:15:50.424Z,994.6
2016-01-13T11:16:50.365Z,994.7
2016-01-13T11:17:50.305Z,994.8
2016-01-13T11:18:50.245Z,994.8
2016-01-13T11:19:50.185Z,994.8
2016-01-13T11:20:50.157Z,994.8
2016-01-13T11:21:50.347Z,994.9
2016-01-13T11:22:50.271Z,994.8
2016-01-13T11:23:49.993Z,995
2016-01-13T11:24:49.981Z,994.9
2016-01-13T11:25:49.842Z,994.9
2016-01-13T11:26:49.782Z,994.8
2016-01-13T11:27:49.957Z,995
2016-01-13T11:28:49.663Z,995
2016-01-13T11:29:49.603Z,994.9
2016-01-13T11:30:49.558Z,994.9
2016-01-13T11:31:49.484Z,995.1
2016-01-13T11:32:49.439Z,995
2016-01-13T11:33:49.380Z,995.1
2016-01-13T11:34:49.319Z,995.1
2016-01-13T11:35:49.261Z,995
2016-01-13T11:36:49.200Z,995
2016-01-13T11:37:49.141Z,995.2
2016-01-13T11:38:49.080Z,995.2
2016-01-13T11:39:49.271Z,995
2016-01-13T11:40:48.977Z,995.3
2016-01-13T11:41:49.105Z,995.3
2016-01-13T11:42:48.872Z,995.4
2016-01-13T11:43:48.985Z,995.2
2016-01-13T11:44:48.738Z,995.3
2016-01-13T11:45:48.677Z,995.2
2016-01-13T11:46:48.618Z,995.3
2016-01-13T11:47:48.557Z,995.4
2016-01-13T11:48:48.498Z,995.3
2016-01-13T11:49:48.438Z,995.5
2016-01-13T11:50:48.394Z,995.5
2016-01-13T11:51:48.319Z,995.4
2016-01-13T11:52:48.274Z,995.4
2016-01-13T11:53:48.215Z,995.6
2016-01-13T11:54:48.155Z,995.5
2016-01-13T11:55:48.095Z,995.6
2016-01-13T11:56:48.036Z,995.5
2016-01-13T11:57:47.976Z,995.6
2016-01-13T11:58:47.916Z,995.6
2016-01-13T11:59:47.872Z,995.7
2016-01-13T12:00:47.796Z,995.7
2016-01-13T12:01:47.752Z,995.5
2016-01-13T12:02:47.676Z,995.8
2016-01-13T12:03:47.632Z,995.8
2016-01-13T12:04:47.573Z,995.9
2016-01-13T12:05:47.513Z,995.7
2016-01-13T12:06:47.454Z,995.7
2016-01-13T12:07:47.425Z,995.8
2016-01-13T12:08:46.581Z,995.7
2016-01-13T12:09:47.270Z,995.9
2016-01-13T12:10:47.211Z,996
2016-01-13T12:11:47.198Z,995.9
2016-01-13T12:12:47.311Z,996
2016-01-13T12:13:47.048Z,996
2016-01-13T12:14:46.988Z,996
2016-01-13T12:15:46.927Z,996.1
2016-01-13T12:16:46.868Z,996
2016-01-13T12:17:46.808Z,996.2
2016-01-13T12:18:46.749Z,996.2
2016-01-13T12:19:46.938Z,996.2
2016-01-13T12:20:46.630Z,996.2
2016-01-13T12:21:46.569Z,996.2
2016-01-13T12:22:46.525Z,996.2
2016-01-13T12:23:46.449Z,996.4
2016-01-13T12:24:46.405Z,996.4
2016-01-13T12:25:46.346Z,996.4
2016-01-13T12:26:46.286Z,996.4
2016-01-13T12:27:46.211Z,996.5
2016-01-13T12:28:46.166Z,996.5
2016-01-13T12:29:46.107Z,996.5
2016-01-13T12:30:46.046Z,996.6
2016-01-13T12:31:46.299Z,996.6
2016-01-13T12:32:45.927Z,996.5
2016-01-13T12:33:45.867Z,996.7
2016-01-13T12:34:45.854Z,996.7
2016-01-13T12:35:45.748Z,996.7
2016-01-13T12:36:45.704Z,996.8
2016-01-13T12:37:45.863Z,996.7
2016-01-13T12:38:45.569Z,996.8
2016-01-13T12:39:45.524Z,996.8
2016-01-13T12:40:45.448Z,996.8
2016-01-13T12:41:45.389Z,996.9
2016-01-13T12:42:45.345Z,997
2016-01-13T12:43:45.284Z,997.1
2016-01-13T12:44:45.226Z,996.9
2016-01-13T12:45:45.009Z,997.1
2016-01-13T12:46:45.121Z,997
2016-01-13T12:47:45.045Z,997.2
2016-01-13T12:48:45.001Z,997.1
2016-01-13T12:49:44.942Z,997
2016-01-13T12:50:44.867Z,997.2
2016-01-13T12:51:44.791Z,997.3
2016-01-13T12:52:44.747Z,997.2
2016-01-13T12:53:44.687Z,997.2
2016-01-13T12:54:44.628Z,997.3
2016-01-13T12:55:44.583Z,997.3
2016-01-13T12:56:44.507Z,997.4
2016-01-13T12:57:44.448Z,997.5
2016-01-13T12:58:44.623Z,997.5
2016-01-13T12:59:44.344Z,997.4
2016-01-13T13:00:44.284Z,997.4